sensor_id;sensor_type;location;lat;lon;timestamp;P1;durP1;ratioP1;P2;durP2;ratioP2
19675;SDS011;39539;52.202;9.876;2023-06-10T00:01:23;4.88;;;4.47;;
19675;SDS011;39539;52.202;9.876;2023-06-10T00:03:49;4.25;;;3.90;;
19675;SDS011;39539;52.202;9.876;2023-06-10T00:06:15;4.68;;;4.30;;
19675;SDS011;39539;52.202;9.876;2023-06-10T00:08:40;5.15;;;4.43;;
19675;SDS011;39539;52.202;9.876;2023-06-10T00:11:07;4.95;;;4.18;;
19675;SDS011;39539;52.202;9.876;2023-06-10T00:13:32;4.65;;;4.13;;
19675;SDS011;39539;52.202;9.876;2023-06-10T00:15:58;5.88;;;4.25;;
19675;SDS011;39539;52.202;9.876;2023-06-10T00:18:23;4.40;;;4.10;;
19675;SDS011;39539;52.202;9.876;2023-06-10T00:20:48;4.75;;;4.35;;
19675;SDS011;39539;52.202;9.876;2023-06-10T00:23:17;4.80;;;4.32;;
19675;SDS011;39539;52.202;9.876;2023-06-10T00:25:43;5.22;;;4.40;;
19675;SDS011;39539;52.202;9.876;2023-06-10T00:28:08;4.35;;;4.03;;
19675;SDS011;39539;52.202;9.876;2023-06-10T00:30:33;4.32;;;3.92;;
19675;SDS011;39539;52.202;9.876;2023-06-10T00:32:59;6.38;;;3.83;;
19675;SDS011;39539;52.202;9.876;2023-06-10T00:35:25;4.30;;;3.85;;
19675;SDS011;39539;52.202;9.876;2023-06-10T00:37:52;4.75;;;4.35;;
19675;SDS011;39539;52.202;9.876;2023-06-10T00:40:17;4.80;;;3.88;;
19675;SDS011;39539;52.202;9.876;2023-06-10T00:42:42;5.82;;;4.22;;
19675;SDS011;39539;52.202;9.876;2023-06-10T00:45:08;4.72;;;4.00;;
19675;SDS011;39539;52.202;9.876;2023-06-10T00:47:34;4.40;;;4.00;;
19675;SDS011;39539;52.202;9.876;2023-06-10T00:50:00;4.95;;;4.45;;
19675;SDS011;39539;52.202;9.876;2023-06-10T00:52:27;4.72;;;4.32;;
19675;SDS011;39539;52.202;9.876;2023-06-10T00:54:54;4.90;;;4.50;;
19675;SDS011;39539;52.202;9.876;2023-06-10T00:57:20;4.28;;;3.97;;
19675;SDS011;39539;52.202;9.876;2023-06-10T00:59:47;4.53;;;4.13;;
19675;SDS011;39539;52.202;9.876;2023-06-10T01:02:13;4.72;;;4.22;;
19675;SDS011;39539;52.202;9.876;2023-06-10T01:04:39;4.45;;;4.05;;
19675;SDS011;39539;52.202;9.876;2023-06-10T01:09:52;4.93;;;4.53;;
19675;SDS011;39539;52.202;9.876;2023-06-10T01:15:14;5.07;;;4.57;;
19675;SDS011;39539;52.202;9.876;2023-06-10T01:17:53;6.97;;;4.63;;
19675;SDS011;39539;52.202;9.876;2023-06-10T01:20:20;5.53;;;4.18;;
19675;SDS011;39539;52.202;9.876;2023-06-10T01:22:45;4.60;;;4.20;;
19675;SDS011;39539;52.202;9.876;2023-06-10T01:25:11;5.10;;;4.70;;
19675;SDS011;39539;52.202;9.876;2023-06-10T01:27:37;5.13;;;4.65;;
19675;SDS011;39539;52.202;9.876;2023-06-10T01:30:08;6.10;;;4.88;;
19675;SDS011;39539;52.202;9.876;2023-06-10T01:32:40;5.50;;;4.95;;
19675;SDS011;39539;52.202;9.876;2023-06-10T01:35:09;5.30;;;4.85;;
19675;SDS011;39539;52.202;9.876;2023-06-10T01:37:35;5.05;;;4.57;;
19675;SDS011;39539;52.202;9.876;2023-06-10T01:40:05;5.40;;;5.00;;
19675;SDS011;39539;52.202;9.876;2023-06-10T01:42:31;5.72;;;4.85;;
19675;SDS011;39539;52.202;9.876;2023-06-10T01:44:58;5.88;;;5.22;;
19675;SDS011;39539;52.202;9.876;2023-06-10T01:47:23;5.82;;;5.25;;
19675;SDS011;39539;52.202;9.876;2023-06-10T01:49:49;5.47;;;4.97;;
19675;SDS011;39539;52.202;9.876;2023-06-10T01:52:14;5.63;;;5.13;;
19675;SDS011;39539;52.202;9.876;2023-06-10T01:54:40;6.15;;;5.43;;
19675;SDS011;39539;52.202;9.876;2023-06-10T01:57:05;5.82;;;5.10;;
19675;SDS011;39539;52.202;9.876;2023-06-10T01:59:31;7.18;;;5.95;;
19675;SDS011;39539;52.202;9.876;2023-06-10T02:01:56;7.40;;;5.63;;
19675;SDS011;39539;52.202;9.876;2023-06-10T02:04:22;6.35;;;5.75;;
19675;SDS011;39539;52.202;9.876;2023-06-10T02:06:47;5.63;;;5.13;;
19675;SDS011;39539;52.202;9.876;2023-06-10T02:09:13;6.40;;;5.90;;
19675;SDS011;39539;52.202;9.876;2023-06-10T02:11:38;5.72;;;5.22;;
19675;SDS011;39539;52.202;9.876;2023-06-10T02:14:04;6.72;;;5.90;;
19675;SDS011;39539;52.202;9.876;2023-06-10T02:16:30;6.15;;;5.65;;
19675;SDS011;39539;52.202;9.876;2023-06-10T02:18:56;6.82;;;6.03;;
19675;SDS011;39539;52.202;9.876;2023-06-10T02:21:21;6.53;;;5.85;;
19675;SDS011;39539;52.202;9.876;2023-06-10T02:23:47;7.75;;;5.75;;
19675;SDS011;39539;52.202;9.876;2023-06-10T02:26:12;6.53;;;5.90;;
19675;SDS011;39539;52.202;9.876;2023-06-10T02:28:37;7.25;;;6.55;;
19675;SDS011;39539;52.202;9.876;2023-06-10T02:31:03;6.95;;;6.28;;
19675;SDS011;39539;52.202;9.876;2023-06-10T02:33:28;6.45;;;5.85;;
19675;SDS011;39539;52.202;9.876;2023-06-10T02:35:53;7.13;;;6.53;;
19675;SDS011;39539;52.202;9.876;2023-06-10T02:38:20;6.50;;;6.00;;
19675;SDS011;39539;52.202;9.876;2023-06-10T02:40:45;7.95;;;5.93;;
19675;SDS011;39539;52.202;9.876;2023-06-10T02:43:11;6.43;;;5.93;;
19675;SDS011;39539;52.202;9.876;2023-06-10T02:45:36;6.40;;;5.90;;
19675;SDS011;39539;52.202;9.876;2023-06-10T02:48:01;7.18;;;6.57;;
19675;SDS011;39539;52.202;9.876;2023-06-10T02:50:27;6.70;;;6.10;;
19675;SDS011;39539;52.202;9.876;2023-06-10T02:52:52;6.78;;;6.18;;
19675;SDS011;39539;52.202;9.876;2023-06-10T02:55:17;6.65;;;6.15;;
19675;SDS011;39539;52.202;9.876;2023-06-10T02:57:43;7.53;;;6.65;;
19675;SDS011;39539;52.202;9.876;2023-06-10T03:00:08;7.18;;;6.60;;
19675;SDS011;39539;52.202;9.876;2023-06-10T03:02:35;7.13;;;6.53;;
19675;SDS011;39539;52.202;9.876;2023-06-10T03:05:03;7.30;;;6.70;;
19675;SDS011;39539;52.202;9.876;2023-06-10T03:07:30;7.25;;;6.65;;
19675;SDS011;39539;52.202;9.876;2023-06-10T03:09:55;7.95;;;7.20;;
19675;SDS011;39539;52.202;9.876;2023-06-10T03:12:21;7.93;;;7.20;;
19675;SDS011;39539;52.202;9.876;2023-06-10T03:14:46;7.53;;;6.88;;
19675;SDS011;39539;52.202;9.876;2023-06-10T03:17:12;7.50;;;6.90;;
19675;SDS011;39539;52.202;9.876;2023-06-10T03:19:37;7.85;;;7.20;;
19675;SDS011;39539;52.202;9.876;2023-06-10T03:22:07;8.25;;;7.45;;
19675;SDS011;39539;52.202;9.876;2023-06-10T03:24:36;7.78;;;7.07;;
19675;SDS011;39539;52.202;9.876;2023-06-10T03:27:05;7.70;;;6.90;;
19675;SDS011;39539;52.202;9.876;2023-06-10T03:29:34;7.03;;;6.40;;
19675;SDS011;39539;52.202;9.876;2023-06-10T03:32:00;7.22;;;6.63;;
19675;SDS011;39539;52.202;9.876;2023-06-10T03:34:25;8.25;;;7.35;;
19675;SDS011;39539;52.202;9.876;2023-06-10T03:36:51;7.63;;;6.93;;
19675;SDS011;39539;52.202;9.876;2023-06-10T03:39:16;7.97;;;7.18;;
19675;SDS011;39539;52.202;9.876;2023-06-10T03:41:41;7.22;;;6.57;;
19675;SDS011;39539;52.202;9.876;2023-06-10T03:44:07;7.80;;;7.13;;
19675;SDS011;39539;52.202;9.876;2023-06-10T03:46:32;8.20;;;7.40;;
19675;SDS011;39539;52.202;9.876;2023-06-10T03:48:57;7.78;;;7.10;;
19675;SDS011;39539;52.202;9.876;2023-06-10T03:51:25;7.68;;;6.97;;
19675;SDS011;39539;52.202;9.876;2023-06-10T03:53:51;7.80;;;7.15;;
19675;SDS011;39539;52.202;9.876;2023-06-10T03:56:16;7.65;;;7.05;;
19675;SDS011;39539;52.202;9.876;2023-06-10T03:58:41;8.20;;;7.50;;
19675;SDS011;39539;52.202;9.876;2023-06-10T04:01:07;8.27;;;7.55;;
19675;SDS011;39539;52.202;9.876;2023-06-10T04:03:32;8.07;;;7.38;;
19675;SDS011;39539;52.202;9.876;2023-06-10T04:05:58;8.95;;;8.05;;
19675;SDS011;39539;52.202;9.876;2023-06-10T04:08:23;8.50;;;7.78;;
19675;SDS011;39539;52.202;9.876;2023-06-10T04:10:49;8.18;;;7.38;;
19675;SDS011;39539;52.202;9.876;2023-06-10T04:13:14;9.07;;;7.80;;
19675;SDS011;39539;52.202;9.876;2023-06-10T04:15:40;8.05;;;7.40;;
19675;SDS011;39539;52.202;9.876;2023-06-10T04:18:06;8.23;;;7.53;;
19675;SDS011;39539;52.202;9.876;2023-06-10T04:20:31;8.73;;;7.93;;
19675;SDS011;39539;52.202;9.876;2023-06-10T04:22:57;8.57;;;7.78;;
19675;SDS011;39539;52.202;9.876;2023-06-10T04:25:22;8.02;;;7.30;;
19675;SDS011;39539;52.202;9.876;2023-06-10T04:27:49;7.65;;;6.95;;
19675;SDS011;39539;52.202;9.876;2023-06-10T04:30:15;7.75;;;7.15;;
19675;SDS011;39539;52.202;9.876;2023-06-10T04:32:41;8.10;;;7.30;;
19675;SDS011;39539;52.202;9.876;2023-06-10T04:35:07;7.60;;;6.82;;
19675;SDS011;39539;52.202;9.876;2023-06-10T04:37:33;8.40;;;7.60;;
19675;SDS011;39539;52.202;9.876;2023-06-10T04:39:58;7.93;;;7.20;;
19675;SDS011;39539;52.202;9.876;2023-06-10T04:42:24;8.50;;;7.80;;
19675;SDS011;39539;52.202;9.876;2023-06-10T04:44:49;8.88;;;7.80;;
19675;SDS011;39539;52.202;9.876;2023-06-10T04:47:15;8.90;;;7.28;;
19675;SDS011;39539;52.202;9.876;2023-06-10T04:49:42;8.07;;;7.28;;
19675;SDS011;39539;52.202;9.876;2023-06-10T04:52:07;8.05;;;7.35;;
19675;SDS011;39539;52.202;9.876;2023-06-10T04:54:33;8.43;;;7.55;;
19675;SDS011;39539;52.202;9.876;2023-06-10T04:56:59;7.93;;;7.30;;
19675;SDS011;39539;52.202;9.876;2023-06-10T04:59:25;8.45;;;7.65;;
19675;SDS011;39539;52.202;9.876;2023-06-10T05:01:50;8.88;;;7.95;;
19675;SDS011;39539;52.202;9.876;2023-06-10T05:04:16;8.27;;;7.57;;
19675;SDS011;39539;52.202;9.876;2023-06-10T05:06:41;8.00;;;7.40;;
19675;SDS011;39539;52.202;9.876;2023-06-10T05:09:06;9.02;;;8.07;;
19675;SDS011;39539;52.202;9.876;2023-06-10T05:11:32;9.07;;;8.27;;
19675;SDS011;39539;52.202;9.876;2023-06-10T05:13:57;11.05;;;8.85;;
19675;SDS011;39539;52.202;9.876;2023-06-10T05:16:22;9.07;;;8.27;;
19675;SDS011;39539;52.202;9.876;2023-06-10T05:18:49;9.55;;;7.55;;
19675;SDS011;39539;52.202;9.876;2023-06-10T05:21:15;8.05;;;7.25;;
19675;SDS011;39539;52.202;9.876;2023-06-10T05:23:41;9.57;;;8.60;;
19675;SDS011;39539;52.202;9.876;2023-06-10T05:26:06;8.73;;;8.02;;
19675;SDS011;39539;52.202;9.876;2023-06-10T05:28:32;8.88;;;8.07;;
19675;SDS011;39539;52.202;9.876;2023-06-10T05:30:57;9.60;;;8.80;;
19675;SDS011;39539;52.202;9.876;2023-06-10T05:33:22;10.20;;;9.20;;
19675;SDS011;39539;52.202;9.876;2023-06-10T05:35:48;10.23;;;9.23;;
19675;SDS011;39539;52.202;9.876;2023-06-10T05:38:13;11.68;;;10.02;;
19675;SDS011;39539;52.202;9.876;2023-06-10T05:40:38;10.27;;;9.52;;
19675;SDS011;39539;52.202;9.876;2023-06-10T05:43:03;10.60;;;9.70;;
19675;SDS011;39539;52.202;9.876;2023-06-10T05:45:29;10.27;;;9.48;;
19675;SDS011;39539;52.202;9.876;2023-06-10T05:47:54;10.30;;;9.40;;
19675;SDS011;39539;52.202;9.876;2023-06-10T05:50:20;10.45;;;9.55;;
19675;SDS011;39539;52.202;9.876;2023-06-10T05:52:45;10.73;;;9.73;;
19675;SDS011;39539;52.202;9.876;2023-06-10T05:55:11;10.18;;;9.25;;
19675;SDS011;39539;52.202;9.876;2023-06-10T05:57:36;10.15;;;9.25;;
19675;SDS011;39539;52.202;9.876;2023-06-10T06:00:02;9.63;;;8.90;;
19675;SDS011;39539;52.202;9.876;2023-06-10T06:02:27;9.07;;;8.38;;
19675;SDS011;39539;52.202;9.876;2023-06-10T06:04:53;9.85;;;9.07;;
19675;SDS011;39539;52.202;9.876;2023-06-10T06:07:18;9.88;;;8.98;;
19675;SDS011;39539;52.202;9.876;2023-06-10T06:09:45;10.25;;;9.35;;
19675;SDS011;39539;52.202;9.876;2023-06-10T06:12:11;11.00;;;10.02;;
19675;SDS011;39539;52.202;9.876;2023-06-10T06:14:37;10.02;;;9.23;;
19675;SDS011;39539;52.202;9.876;2023-06-10T06:17:04;10.50;;;9.45;;
19675;SDS011;39539;52.202;9.876;2023-06-10T06:19:30;9.93;;;8.93;;
19675;SDS011;39539;52.202;9.876;2023-06-10T06:21:55;10.20;;;9.27;;
19675;SDS011;39539;52.202;9.876;2023-06-10T06:24:21;9.88;;;9.07;;
19675;SDS011;39539;52.202;9.876;2023-06-10T06:26:46;10.77;;;9.75;;
19675;SDS011;39539;52.202;9.876;2023-06-10T06:29:12;9.00;;;8.30;;
19675;SDS011;39539;52.202;9.876;2023-06-10T06:31:37;9.68;;;8.88;;
19675;SDS011;39539;52.202;9.876;2023-06-10T06:34:02;9.93;;;8.85;;
19675;SDS011;39539;52.202;9.876;2023-06-10T06:36:28;9.35;;;8.55;;
19675;SDS011;39539;52.202;9.876;2023-06-10T06:38:53;9.23;;;8.35;;
19675;SDS011;39539;52.202;9.876;2023-06-10T06:41:18;8.55;;;7.85;;
19675;SDS011;39539;52.202;9.876;2023-06-10T06:43:44;8.70;;;7.85;;
19675;SDS011;39539;52.202;9.876;2023-06-10T06:46:09;10.60;;;8.10;;
19675;SDS011;39539;52.202;9.876;2023-06-10T06:48:35;7.90;;;7.20;;
19675;SDS011;39539;52.202;9.876;2023-06-10T06:51:01;8.02;;;7.43;;
19675;SDS011;39539;52.202;9.876;2023-06-10T06:53:28;8.20;;;7.57;;
19675;SDS011;39539;52.202;9.876;2023-06-10T06:55:54;8.27;;;7.47;;
19675;SDS011;39539;52.202;9.876;2023-06-10T06:58:19;7.80;;;7.10;;
19675;SDS011;39539;52.202;9.876;2023-06-10T07:00:46;8.00;;;7.20;;
19675;SDS011;39539;52.202;9.876;2023-06-10T07:03:11;7.63;;;6.80;;
19675;SDS011;39539;52.202;9.876;2023-06-10T07:05:36;8.68;;;7.15;;
19675;SDS011;39539;52.202;9.876;2023-06-10T07:08:01;7.15;;;6.47;;
19675;SDS011;39539;52.202;9.876;2023-06-10T07:10:28;7.85;;;7.20;;
19675;SDS011;39539;52.202;9.876;2023-06-10T07:12:53;9.45;;;6.93;;
19675;SDS011;39539;52.202;9.876;2023-06-10T07:15:19;7.43;;;6.50;;
19675;SDS011;39539;52.202;9.876;2023-06-10T07:17:45;7.20;;;6.15;;
19675;SDS011;39539;52.202;9.876;2023-06-10T07:20:10;6.50;;;6.00;;
19675;SDS011;39539;52.202;9.876;2023-06-10T07:22:36;6.85;;;6.05;;
19675;SDS011;39539;52.202;9.876;2023-06-10T07:25:01;7.07;;;6.00;;
19675;SDS011;39539;52.202;9.876;2023-06-10T07:27:27;6.85;;;6.25;;
19675;SDS011;39539;52.202;9.876;2023-06-10T07:29:52;6.40;;;5.90;;
19675;SDS011;39539;52.202;9.876;2023-06-10T07:32:17;6.45;;;5.85;;
19675;SDS011;39539;52.202;9.876;2023-06-10T07:34:45;7.22;;;5.70;;
19675;SDS011;39539;52.202;9.876;2023-06-10T07:37:11;6.13;;;5.63;;
19675;SDS011;39539;52.202;9.876;2023-06-10T07:39:36;6.00;;;5.50;;
19675;SDS011;39539;52.202;9.876;2023-06-10T07:42:01;5.70;;;5.20;;
19675;SDS011;39539;52.202;9.876;2023-06-10T07:44:26;6.25;;;5.47;;
19675;SDS011;39539;52.202;9.876;2023-06-10T07:46:52;6.28;;;5.68;;
19675;SDS011;39539;52.202;9.876;2023-06-10T07:49:18;7.38;;;5.45;;
19675;SDS011;39539;52.202;9.876;2023-06-10T07:51:43;6.22;;;5.18;;
19675;SDS011;39539;52.202;9.876;2023-06-10T07:54:09;5.75;;;5.15;;
19675;SDS011;39539;52.202;9.876;2023-06-10T07:56:37;5.90;;;5.10;;
19675;SDS011;39539;52.202;9.876;2023-06-10T07:59:02;7.32;;;5.43;;
19675;SDS011;39539;52.202;9.876;2023-06-10T08:01:27;5.78;;;5.18;;
19675;SDS011;39539;52.202;9.876;2023-06-10T08:03:55;6.75;;;5.70;;
19675;SDS011;39539;52.202;9.876;2023-06-10T08:06:20;9.63;;;5.68;;
19675;SDS011;39539;52.202;9.876;2023-06-10T08:08:45;5.93;;;5.30;;
19675;SDS011;39539;52.202;9.876;2023-06-10T08:11:11;5.53;;;5.03;;
19675;SDS011;39539;52.202;9.876;2023-06-10T08:13:36;5.68;;;5.18;;
19675;SDS011;39539;52.202;9.876;2023-06-10T08:16:02;5.90;;;5.40;;
19675;SDS011;39539;52.202;9.876;2023-06-10T08:18:28;6.80;;;4.97;;
19675;SDS011;39539;52.202;9.876;2023-06-10T08:20:53;5.95;;;5.45;;
19675;SDS011;39539;52.202;9.876;2023-06-10T08:23:19;6.25;;;5.75;;
19675;SDS011;39539;52.202;9.876;2023-06-10T08:25:44;6.80;;;6.15;;
19675;SDS011;39539;52.202;9.876;2023-06-10T08:28:10;5.78;;;5.22;;
19675;SDS011;39539;52.202;9.876;2023-06-10T08:30:35;5.40;;;4.90;;
19675;SDS011;39539;52.202;9.876;2023-06-10T08:33:00;6.55;;;5.55;;
19675;SDS011;39539;52.202;9.876;2023-06-10T08:35:26;6.97;;;5.50;;
19675;SDS011;39539;52.202;9.876;2023-06-10T08:37:51;5.97;;;5.43;;
19675;SDS011;39539;52.202;9.876;2023-06-10T08:40:16;5.57;;;5.00;;
19675;SDS011;39539;52.202;9.876;2023-06-10T08:42:46;5.82;;;4.60;;
19675;SDS011;39539;52.202;9.876;2023-06-10T08:45:18;9.02;;;5.93;;
19675;SDS011;39539;52.202;9.876;2023-06-10T08:47:47;5.93;;;5.35;;
19675;SDS011;39539;52.202;9.876;2023-06-10T08:50:18;5.63;;;4.82;;
19675;SDS011;39539;52.202;9.876;2023-06-10T08:52:44;5.72;;;4.70;;
19675;SDS011;39539;52.202;9.876;2023-06-10T08:55:13;6.10;;;5.50;;
19675;SDS011;39539;52.202;9.876;2023-06-10T08:57:44;5.93;;;5.32;;
19675;SDS011;39539;52.202;9.876;2023-06-10T09:00:10;6.28;;;5.25;;
19675;SDS011;39539;52.202;9.876;2023-06-10T09:02:37;6.97;;;5.63;;
19675;SDS011;39539;52.202;9.876;2023-06-10T09:05:03;6.18;;;5.55;;
19675;SDS011;39539;52.202;9.876;2023-06-10T09:07:29;6.10;;;5.50;;
19675;SDS011;39539;52.202;9.876;2023-06-10T09:10:01;5.68;;;5.07;;
19675;SDS011;39539;52.202;9.876;2023-06-10T09:12:28;6.22;;;5.05;;
19675;SDS011;39539;52.202;9.876;2023-06-10T09:14:54;5.70;;;5.13;;
19675;SDS011;39539;52.202;9.876;2023-06-10T09:17:20;5.68;;;4.88;;
19675;SDS011;39539;52.202;9.876;2023-06-10T09:19:45;5.93;;;5.10;;
19675;SDS011;39539;52.202;9.876;2023-06-10T09:22:11;5.30;;;4.80;;
19675;SDS011;39539;52.202;9.876;2023-06-10T09:24:37;5.53;;;4.88;;
19675;SDS011;39539;52.202;9.876;2023-06-10T09:27:04;5.45;;;4.70;;
19675;SDS011;39539;52.202;9.876;2023-06-10T09:29:31;5.88;;;5.07;;
19675;SDS011;39539;52.202;9.876;2023-06-10T09:32:09;5.35;;;4.85;;
19675;SDS011;39539;52.202;9.876;2023-06-10T09:34:35;5.57;;;4.90;;
19675;SDS011;39539;52.202;9.876;2023-06-10T09:37:01;6.25;;;5.63;;
19675;SDS011;39539;52.202;9.876;2023-06-10T09:39:27;6.10;;;5.60;;
19675;SDS011;39539;52.202;9.876;2023-06-10T09:41:52;6.28;;;5.68;;
19675;SDS011;39539;52.202;9.876;2023-06-10T09:44:19;6.15;;;5.45;;
19675;SDS011;39539;52.202;9.876;2023-06-10T09:46:49;6.07;;;5.47;;
19675;SDS011;39539;52.202;9.876;2023-06-10T09:49:19;7.00;;;5.95;;
19675;SDS011;39539;52.202;9.876;2023-06-10T09:51:51;5.85;;;5.38;;
19675;SDS011;39539;52.202;9.876;2023-06-10T09:54:17;6.10;;;5.57;;
19675;SDS011;39539;52.202;9.876;2023-06-10T09:56:43;6.63;;;6.03;;
19675;SDS011;39539;52.202;9.876;2023-06-10T09:59:12;6.60;;;5.30;;
19675;SDS011;39539;52.202;9.876;2023-06-10T10:01:37;5.68;;;4.82;;
19675;SDS011;39539;52.202;9.876;2023-06-10T10:04:03;6.50;;;5.75;;
19675;SDS011;39539;52.202;9.876;2023-06-10T10:06:29;6.13;;;5.60;;
19675;SDS011;39539;52.202;9.876;2023-06-10T10:08:55;6.15;;;5.57;;
19675;SDS011;39539;52.202;9.876;2023-06-10T10:11:21;7.38;;;6.07;;
19675;SDS011;39539;52.202;9.876;2023-06-10T10:13:48;6.10;;;5.55;;
19675;SDS011;39539;52.202;9.876;2023-06-10T10:16:16;5.82;;;5.40;;
19675;SDS011;39539;52.202;9.876;2023-06-10T10:18:45;6.70;;;5.68;;
19675;SDS011;39539;52.202;9.876;2023-06-10T10:21:13;6.22;;;5.72;;
19675;SDS011;39539;52.202;9.876;2023-06-10T10:23:47;6.13;;;5.57;;
19675;SDS011;39539;52.202;9.876;2023-06-10T10:26:14;6.88;;;5.70;;
19675;SDS011;39539;52.202;9.876;2023-06-10T10:28:47;6.10;;;5.60;;
19675;SDS011;39539;52.202;9.876;2023-06-10T10:31:19;5.75;;;5.13;;
19675;SDS011;39539;52.202;9.876;2023-06-10T10:33:57;7.80;;;5.20;;
19675;SDS011;39539;52.202;9.876;2023-06-10T10:36:25;6.10;;;5.50;;
19675;SDS011;39539;52.202;9.876;2023-06-10T10:38:52;5.93;;;5.43;;
19675;SDS011;39539;52.202;9.876;2023-06-10T10:41:18;7.05;;;6.15;;
19675;SDS011;39539;52.202;9.876;2023-06-10T10:43:45;7.45;;;6.70;;
19675;SDS011;39539;52.202;9.876;2023-06-10T10:46:15;7.45;;;6.78;;
19675;SDS011;39539;52.202;9.876;2023-06-10T10:48:42;7.20;;;6.45;;
19675;SDS011;39539;52.202;9.876;2023-06-10T10:51:11;7.40;;;6.78;;
19675;SDS011;39539;52.202;9.876;2023-06-10T10:53:37;7.45;;;6.20;;
19675;SDS011;39539;52.202;9.876;2023-06-10T10:56:04;7.38;;;6.68;;
19675;SDS011;39539;52.202;9.876;2023-06-10T10:58:37;6.72;;;6.03;;
19675;SDS011;39539;52.202;9.876;2023-06-10T11:01:12;13.77;;;6.30;;
19675;SDS011;39539;52.202;9.876;2023-06-10T11:03:44;7.75;;;6.20;;
19675;SDS011;39539;52.202;9.876;2023-06-10T11:06:13;6.65;;;5.97;;
19675;SDS011;39539;52.202;9.876;2023-06-10T11:11:24;7.20;;;6.50;;
19675;SDS011;39539;52.202;9.876;2023-06-10T11:16:38;6.97;;;6.28;;
19675;SDS011;39539;52.202;9.876;2023-06-10T11:19:07;8.90;;;6.68;;
19675;SDS011;39539;52.202;9.876;2023-06-10T11:24:25;7.38;;;6.78;;
19675;SDS011;39539;52.202;9.876;2023-06-10T11:26:51;7.18;;;6.50;;
19675;SDS011;39539;52.202;9.876;2023-06-10T11:29:16;6.82;;;6.25;;
19675;SDS011;39539;52.202;9.876;2023-06-10T11:31:46;7.43;;;6.72;;
19675;SDS011;39539;52.202;9.876;2023-06-10T11:34:15;6.97;;;6.28;;
19675;SDS011;39539;52.202;9.876;2023-06-10T11:36:45;7.45;;;6.72;;
19675;SDS011;39539;52.202;9.876;2023-06-10T11:39:11;7.28;;;6.63;;
19675;SDS011;39539;52.202;9.876;2023-06-10T11:41:37;7.38;;;6.78;;
19675;SDS011;39539;52.202;9.876;2023-06-10T11:46:37;6.88;;;6.30;;
19675;SDS011;39539;52.202;9.876;2023-06-10T11:49:04;6.63;;;6.03;;
19675;SDS011;39539;52.202;9.876;2023-06-10T11:51:32;7.35;;;6.70;;
19675;SDS011;39539;52.202;9.876;2023-06-10T11:54:02;7.03;;;6.32;;
19675;SDS011;39539;52.202;9.876;2023-06-10T11:56:29;7.40;;;6.65;;
19675;SDS011;39539;52.202;9.876;2023-06-10T12:01:29;6.53;;;6.03;;
19675;SDS011;39539;52.202;9.876;2023-06-10T12:04:00;6.93;;;6.38;;
19675;SDS011;39539;52.202;9.876;2023-06-10T12:06:37;7.00;;;6.50;;
19675;SDS011;39539;52.202;9.876;2023-06-10T12:09:28;7.22;;;6.60;;
19675;SDS011;39539;52.202;9.876;2023-06-10T12:11:59;7.32;;;6.63;;
19675;SDS011;39539;52.202;9.876;2023-06-10T12:19:58;6.65;;;6.05;;
19675;SDS011;39539;52.202;9.876;2023-06-10T12:22:24;7.50;;;6.90;;
19675;SDS011;39539;52.202;9.876;2023-06-10T12:24:58;7.95;;;7.15;;
19675;SDS011;39539;52.202;9.876;2023-06-10T12:27:27;7.38;;;6.85;;
19675;SDS011;39539;52.202;9.876;2023-06-10T12:29:55;6.50;;;6.00;;
19675;SDS011;39539;52.202;9.876;2023-06-10T12:32:21;7.32;;;6.68;;
19675;SDS011;39539;52.202;9.876;2023-06-10T12:35:01;6.72;;;6.22;;
19675;SDS011;39539;52.202;9.876;2023-06-10T12:37:29;7.25;;;6.65;;
19675;SDS011;39539;52.202;9.876;2023-06-10T12:39:54;7.32;;;6.57;;
19675;SDS011;39539;52.202;9.876;2023-06-10T12:42:21;8.07;;;6.72;;
19675;SDS011;39539;52.202;9.876;2023-06-10T12:44:52;7.70;;;6.85;;
19675;SDS011;39539;52.202;9.876;2023-06-10T12:47:18;6.80;;;6.22;;
19675;SDS011;39539;52.202;9.876;2023-06-10T12:49:44;7.35;;;6.68;;
19675;SDS011;39539;52.202;9.876;2023-06-10T12:52:09;7.72;;;7.00;;
19675;SDS011;39539;52.202;9.876;2023-06-10T12:54:34;7.43;;;6.93;;
19675;SDS011;39539;52.202;9.876;2023-06-10T12:57:00;7.93;;;7.32;;
19675;SDS011;39539;52.202;9.876;2023-06-10T12:59:26;7.03;;;6.45;;
19675;SDS011;39539;52.202;9.876;2023-06-10T13:01:52;7.55;;;7.05;;
19675;SDS011;39539;52.202;9.876;2023-06-10T13:04:20;8.20;;;7.50;;
19675;SDS011;39539;52.202;9.876;2023-06-10T13:06:46;8.02;;;7.43;;
19675;SDS011;39539;52.202;9.876;2023-06-10T13:09:12;7.38;;;6.65;;
19675;SDS011;39539;52.202;9.876;2023-06-10T13:11:38;7.45;;;6.85;;
19675;SDS011;39539;52.202;9.876;2023-06-10T13:14:04;7.00;;;6.45;;
19675;SDS011;39539;52.202;9.876;2023-06-10T13:16:30;7.60;;;7.00;;
19675;SDS011;39539;52.202;9.876;2023-06-10T13:18:57;6.93;;;6.32;;
19675;SDS011;39539;52.202;9.876;2023-06-10T13:21:22;7.40;;;6.78;;
19675;SDS011;39539;52.202;9.876;2023-06-10T13:23:47;7.68;;;7.07;;
19675;SDS011;39539;52.202;9.876;2023-06-10T13:26:13;6.97;;;6.45;;
19675;SDS011;39539;52.202;9.876;2023-06-10T13:28:41;7.45;;;6.78;;
19675;SDS011;39539;52.202;9.876;2023-06-10T13:31:07;7.20;;;6.70;;
19675;SDS011;39539;52.202;9.876;2023-06-10T13:33:32;7.22;;;6.72;;
19675;SDS011;39539;52.202;9.876;2023-06-10T13:35:58;7.28;;;6.68;;
19675;SDS011;39539;52.202;9.876;2023-06-10T13:38:23;7.70;;;7.10;;
19675;SDS011;39539;52.202;9.876;2023-06-10T13:40:48;7.20;;;6.60;;
19675;SDS011;39539;52.202;9.876;2023-06-10T13:43:14;7.47;;;6.72;;
19675;SDS011;39539;52.202;9.876;2023-06-10T13:45:40;9.52;;;6.28;;
19675;SDS011;39539;52.202;9.876;2023-06-10T13:48:05;7.70;;;7.10;;
19675;SDS011;39539;52.202;9.876;2023-06-10T13:50:31;8.23;;;6.70;;
19675;SDS011;39539;52.202;9.876;2023-06-10T13:52:56;6.68;;;6.18;;
19675;SDS011;39539;52.202;9.876;2023-06-10T13:55:22;7.13;;;6.43;;
19675;SDS011;39539;52.202;9.876;2023-06-10T13:57:49;6.88;;;6.38;;
19675;SDS011;39539;52.202;9.876;2023-06-10T14:00:14;7.82;;;7.22;;
19675;SDS011;39539;52.202;9.876;2023-06-10T14:02:40;7.65;;;6.78;;
19675;SDS011;39539;52.202;9.876;2023-06-10T14:05:05;7.00;;;6.40;;
19675;SDS011;39539;52.202;9.876;2023-06-10T14:07:32;7.15;;;6.65;;
19675;SDS011;39539;52.202;9.876;2023-06-10T14:09:57;7.82;;;7.13;;
19675;SDS011;39539;52.202;9.876;2023-06-10T14:12:23;7.13;;;6.47;;
19675;SDS011;39539;52.202;9.876;2023-06-10T14:14:49;6.80;;;6.28;;
19675;SDS011;39539;52.202;9.876;2023-06-10T14:17:14;6.93;;;6.43;;
19675;SDS011;39539;52.202;9.876;2023-06-10T14:19:42;7.68;;;7.10;;
19675;SDS011;39539;52.202;9.876;2023-06-10T14:22:08;7.03;;;6.35;;
19675;SDS011;39539;52.202;9.876;2023-06-10T14:24:35;7.68;;;7.07;;
19675;SDS011;39539;52.202;9.876;2023-06-10T14:27:01;7.38;;;6.88;;
19675;SDS011;39539;52.202;9.876;2023-06-10T14:29:26;7.72;;;6.88;;
19675;SDS011;39539;52.202;9.876;2023-06-10T14:31:54;7.40;;;6.80;;
19675;SDS011;39539;52.202;9.876;2023-06-10T14:34:19;7.00;;;6.50;;
19675;SDS011;39539;52.202;9.876;2023-06-10T14:36:45;8.07;;;6.40;;
19675;SDS011;39539;52.202;9.876;2023-06-10T14:39:10;7.32;;;6.63;;
19675;SDS011;39539;52.202;9.876;2023-06-10T14:41:35;7.10;;;6.40;;
19675;SDS011;39539;52.202;9.876;2023-06-10T14:44:01;6.45;;;5.88;;
19675;SDS011;39539;52.202;9.876;2023-06-10T14:46:26;7.15;;;6.65;;
19675;SDS011;39539;52.202;9.876;2023-06-10T14:48:53;6.43;;;6.00;;
19675;SDS011;39539;52.202;9.876;2023-06-10T14:51:18;6.90;;;6.40;;
19675;SDS011;39539;52.202;9.876;2023-06-10T14:53:45;6.88;;;6.35;;
19675;SDS011;39539;52.202;9.876;2023-06-10T14:56:10;6.85;;;6.25;;
19675;SDS011;39539;52.202;9.876;2023-06-10T14:58:35;7.22;;;6.70;;
19675;SDS011;39539;52.202;9.876;2023-06-10T15:01:01;7.30;;;6.63;;
19675;SDS011;39539;52.202;9.876;2023-06-10T15:03:26;7.38;;;6.85;;
19675;SDS011;39539;52.202;9.876;2023-06-10T15:05:51;7.10;;;6.60;;
19675;SDS011;39539;52.202;9.876;2023-06-10T15:08:18;6.65;;;6.15;;